Time;durP1;ratioP1;P1;durP2;ratioP2;P2;SDS_P1;SDS_P2;PMS_P1;PMS_P2;Temp;Humidity;BMP_temperature;BMP_pressure;BME280_temperature;BME280_humidity;BME280_pressure;Samples;Min_cycle;Max_cycle;Signal;HPM_P1;HPM_P2
2023/04/02 00:01:36;;;;;;;8.98;5.60;;;;;;;8.86;99.38;96492.31;5018442;28;20121;-75
2023/04/02 00:04:25;;;;;;;6.40;4.95;;;;;;;8.80;99.50;96504.63;5017792;28;20408;-75
2023/04/02 00:06:54;;;;;;;5.78;4.28;;;;;;;8.70;100.00;96496.25;5018890;28;20054;-75
2023/04/02 00:09:36;;;;;;;7.00;5.28;;;;;;;8.73;100.00;96509.13;5019416;28;20116;-75
2023/04/02 00:12:18;;;;;;;7.03;4.88;;;;;;;8.90;99.42;96498.84;5017758;28;20041;-75
2023/04/02 00:14:50;;;;;;;6.85;4.47;;;;;;;8.91;99.25;96501.31;5017942;28;20066;-73
2023/04/02 00:17:18;;;;;;;5.25;4.18;;;;;;;8.97;98.77;96504.94;5017935;28;20056;-73
2023/04/02 00:19:49;;;;;;;4.18;3.70;;;;;;;8.88;98.64;96512.34;5020273;28;20108;-73
2023/04/02 00:22:21;;;;;;;4.57;3.70;;;;;;;8.82;99.01;96514.00;5018969;28;20052;-74
2023/04/02 00:24:53;;;;;;;5.95;4.45;;;;;;;8.87;99.01;96524.03;5017005;28;20038;-74
2023/04/02 00:27:20;;;;;;;5.45;3.97;;;;;;;8.86;98.26;96527.72;5018104;28;20497;-74
2023/04/02 00:29:49;;;;;;;5.28;3.08;;;;;;;8.84;97.79;96525.25;5018338;28;20041;-74
2023/04/02 00:32:21;;;;;;;4.65;2.30;;;;;;;8.85;96.73;96526.06;5018421;28;20046;-73
2023/04/02 00:34:49;;;;;;;2.78;2.10;;;;;;;8.78;96.77;96528.75;5018720;28;20195;-73
2023/04/02 00:37:22;;;;;;;3.70;1.75;;;;;;;8.75;96.87;96531.00;5019910;28;20056;-73
2023/04/02 00:39:56;;;;;;;2.95;2.10;;;;;;;8.70;97.18;96536.16;5017475;28;20081;-73
2023/04/02 00:42:27;;;;;;;2.72;2.22;;;;;;;8.73;97.30;96535.72;5018895;28;20459;-73
2023/04/02 00:44:57;;;;;;;1.83;1.55;;;;;;;8.68;96.96;96538.22;5015850;28;20516;-73
2023/04/02 00:47:27;;;;;;;1.70;1.60;;;;;;;8.71;97.12;96543.94;5019051;28;20088;-74
2023/04/02 00:49:57;;;;;;;2.40;2.03;;;;;;;8.63;97.27;96545.97;5018115;28;20049;-73
2023/04/02 00:52:26;;;;;;;2.88;1.73;;;;;;;8.64;97.24;96542.28;5018938;28;20444;-74
2023/04/02 00:55:01;;;;;;;2.00;1.80;;;;;;;8.66;97.26;96550.91;5016948;28;20077;-73
2023/04/02 00:57:29;;;;;;;2.60;2.10;;;;;;;8.63;96.93;96549.47;5018524;28;20049;-74
2023/04/02 01:00:01;;;;;;;3.22;2.10;;;;;;;8.58;97.51;96559.91;5020472;28;20529;-74
2023/04/02 01:02:32;;;;;;;2.80;2.28;;;;;;;8.60;97.78;96551.75;5021399;28;20378;-74
2023/04/02 01:05:02;;;;;;;2.53;2.33;;;;;;;8.60;98.08;96554.41;5022325;28;20053;-74
2023/04/02 01:07:46;;;;;;;3.25;2.53;;;;;;;8.49;97.49;96561.16;5022415;28;20038;-74
2023/04/02 01:10:36;;;;;;;2.65;2.03;;;;;;;8.43;97.93;96562.78;5063302;22;20053;-70
2023/04/02 01:13:13;;;;;;;2.88;2.45;;;;;;;8.40;98.43;96576.53;5058634;28;20598;-70
2023/04/02 01:15:42;;;;;;;1.50;1.33;;;;;;;8.39;97.51;96574.88;5041533;28;20046;-72
2023/04/02 01:18:30;;;;;;;1.75;1.10;;;;;;;8.36;96.70;96582.44;5040407;28;20051;-71
2023/04/02 01:21:22;;;;;;;1.30;1.00;;;;;;;8.20;96.67;96583.63;5030562;28;20041;-71
2023/04/02 01:23:57;;;;;;;2.05;1.15;;;;;;;8.18;96.25;96591.00;5030619;28;20522;-72
2023/04/02 01:26:36;;;;;;;1.80;1.30;;;;;;;8.07;96.60;96587.13;5033128;28;20046;-71
2023/04/02 01:29:09;;;;;;;1.60;1.30;;;;;;;8.17;96.02;96599.19;5030920;28;20132;-70
2023/04/02 01:31:37;;;;;;;1.90;1.40;;;;;;;8.06;96.18;96597.94;5029156;28;20132;-70
2023/04/02 01:34:08;;;;;;;2.10;1.45;;;;;;;7.99;96.55;96605.91;5030826;28;20435;-70
2023/04/02 01:36:40;;;;;;;2.47;1.20;;;;;;;8.02;96.15;96610.00;5031310;28;20061;-70
2023/04/02 01:39:15;;;;;;;1.67;1.55;;;;;;;7.87;96.28;96612.84;5030590;28;20046;-70
2023/04/02 01:41:47;;;;;;;2.03;1.55;;;;;;;7.83;96.73;96621.41;5032344;28;20659;-70
2023/04/02 01:44:20;;;;;;;2.45;1.95;;;;;;;7.60;96.58;96630.53;5032184;28;20041;-70
2023/04/02 01:46:49;;;;;;;1.75;1.63;;;;;;;7.56;96.61;96637.28;5028965;28;20057;-70
2023/04/02 01:49:20;;;;;;;2.92;1.60;;;;;;;7.55;95.13;96640.16;5030750;28;20042;-70
2023/04/02 01:51:52;;;;;;;1.58;1.27;;;;;;;7.49;95.44;96648.88;5047923;28;20029;-69
2023/04/02 01:54:21;;;;;;;1.38;1.00;;;;;;;7.45;95.10;96645.81;5071306;28;20042;-69
2023/04/02 01:56:50;;;;;;;1.60;1.10;;;;;;;7.45;95.32;96653.78;5038855;28;20061;-69
2023/04/02 01:59:21;;;;;;;0.77;0.70;;;;;;;7.16;95.24;96659.38;5038494;28;20075;-73
2023/04/02 02:01:58;;;;;;;1.42;0.93;;;;;;;7.19;95.64;96666.94;5057527;28;20089;-72
2023/04/02 02:04:26;;;;;;;0.82;0.73;;;;;;;7.16;95.27;96670.00;5047791;28;20036;-71
2023/04/02 02:06:57;;;;;;;1.70;1.17;;;;;;;7.05;94.76;96667.88;5055846;28;20030;-71
2023/04/02 02:09:27;;;;;;;1.10;0.80;;;;;;;7.08;95.04;96678.09;5050359;28;20056;-72
2023/04/02 02:11:56;;;;;;;1.58;1.10;;;;;;;6.92;95.36;96685.34;5032697;28;20080;-72
2023/04/02 02:14:27;;;;;;;1.15;1.02;;;;;;;6.85;96.08;96678.38;5034186;28;20048;-73
2023/04/02 02:16:56;;;;;;;1.67;1.30;;;;;;;6.97;95.31;96684.75;5031583;28;20061;-73
2023/04/02 02:19:26;;;;;;;1.80;1.70;;;;;;;7.03;94.79;96688.47;5032629;28;20443;-70
2023/04/02 02:21:55;;;;;;;1.42;1.33;;;;;;;6.95;94.83;96697.41;5032691;28;20049;-69
2023/04/02 02:24:25;;;;;;;1.52;1.02;;;;;;;6.85;94.72;96696.94;5030488;28;20042;-72
2023/04/02 02:27:02;;;;;;;1.75;1.50;;;;;;;6.58;95.06;96695.91;5031582;28;20520;-71
2023/04/02 02:29:35;;;;;;;1.92;1.15;;;;;;;6.66;95.01;96708.19;5029995;28;20038;-72
2023/04/02 02:32:04;;;;;;;1.92;1.73;;;;;;;6.64;95.26;96721.66;5025484;28;20058;-69
2023/04/02 02:34:36;;;;;;;1.65;1.27;;;;;;;6.41;96.48;96721.88;5024474;28;20099;-72
2023/04/02 02:37:06;;;;;;;2.03;1.75;;;;;;;6.52;96.07;96723.19;5030774;28;20061;-72
2023/04/02 02:39:37;;;;;;;2.05;1.75;;;;;;;6.47;96.57;96726.41;5027291;28;20508;-70
2023/04/02 02:42:09;;;;;;;2.80;2.60;;;;;;;6.46;95.52;96732.72;5024756;28;20307;-72
2023/04/02 02:44:42;;;;;;;1.17;1.05;;;;;;;6.44;94.80;96742.66;5030114;28;20030;-72
2023/04/02 02:47:13;;;;;;;1.55;1.30;;;;;;;6.45;94.75;96746.97;5028720;28;20045;-72
2023/04/02 02:49:43;;;;;;;1.17;1.02;;;;;;;6.37;94.64;96752.41;5026234;28;20177;-72
2023/04/02 02:52:16;;;;;;;1.13;1.02;;;;;;;6.28;95.04;96750.88;5026317;28;20034;-71
2023/04/02 02:54:54;;;;;;;1.40;1.30;;;;;;;6.19;95.42;96758.13;5029307;28;20095;-71
2023/04/02 02:57:27;;;;;;;1.60;1.25;;;;;;;6.21;95.16;96765.91;5028603;28;20063;-71
2023/04/02 02:59:58;;;;;;;1.30;1.15;;;;;;;6.25;95.39;96767.97;5023513;28;20053;-71
2023/04/02 03:02:27;;;;;;;1.42;1.15;;;;;;;6.08;96.45;96774.53;5029824;28;20075;-72
2023/04/02 03:04:58;;;;;;;1.65;1.50;;;;;;;6.07;95.35;96770.22;5025998;28;20039;-71
2023/04/02 03:07:29;;;;;;;2.15;1.38;;;;;;;6.03;95.43;96782.19;5029031;28;20041;-72
2023/04/02 03:10:04;;;;;;;1.70;1.20;;;;;;;6.01;94.87;96781.56;5028909;28;20460;-72
2023/04/02 03:12:42;;;;;;;1.95;1.67;;;;;;;6.04;94.35;96789.13;5029727;28;20079;-72
2023/04/02 03:15:18;;;;;;;1.80;1.63;;;;;;;5.82;95.45;96788.22;5027529;28;20046;-72
2023/04/02 03:17:51;;;;;;;1.83;1.30;;;;;;;5.75;94.63;96787.31;5028368;28;20096;-72
2023/04/02 03:20:22;;;;;;;1.50;1.20;;;;;;;5.84;95.16;96801.28;5027872;28;20072;-72
2023/04/02 03:22:53;;;;;;;1.20;1.02;;;;;;;5.78;95.83;96800.22;5028491;28;20053;-72
2023/04/02 03:25:26;;;;;;;1.17;1.08;;;;;;;5.88;94.41;96808.72;5029061;28;20064;-72
2023/04/02 03:27:59;;;;;;;1.25;1.00;;;;;;;5.91;94.63;96818.13;5029285;28;20050;-72
2023/04/02 03:30:31;;;;;;;1.15;1.02;;;;;;;5.98;93.78;96818.19;5027341;28;20087;-72
2023/04/02 03:33:02;;;;;;;1.02;0.82;;;;;;;5.89;94.05;96825.44;5029146;28;20046;-72
2023/04/02 03:35:34;;;;;;;1.15;1.00;;;;;;;5.87;94.02;96830.03;5027373;28;20042;-72
2023/04/02 03:38:06;;;;;;;0.98;0.82;;;;;;;5.80;93.73;96832.63;5027379;28;20092;-72
2023/04/02 03:40:37;;;;;;;0.93;0.90;;;;;;;5.75;94.19;96842.09;5027852;28;20416;-71
2023/04/02 03:43:13;;;;;;;1.17;0.80;;;;;;;5.75;93.14;96847.41;5028576;28;20489;-71
2023/04/02 03:45:45;;;;;;;1.20;0.93;;;;;;;5.76;92.88;96847.22;5026844;28;20045;-71
2023/04/02 03:48:17;;;;;;;1.23;0.82;;;;;;;5.68;93.60;96857.09;5026749;28;20041;-71
2023/04/02 03:50:50;;;;;;;1.30;1.00;;;;;;;5.65;93.49;96860.91;5028147;28;20045;-71
2023/04/02 03:53:23;;;;;;;1.05;0.95;;;;;;;5.63;93.72;96859.44;5028154;28;20045;-71
2023/04/02 03:55:51;;;;;;;1.33;1.10;;;;;;;5.65;92.95;96865.38;5027174;28;20042;-71
2023/04/02 03:58:21;;;;;;;1.17;1.08;;;;;;;5.43;94.13;96875.84;5027314;28;20455;-71
2023/04/02 04:00:54;;;;;;;1.58;1.25;;;;;;;5.55;93.75;96876.22;5028214;28;20041;-71
2023/04/02 04:03:24;;;;;;;2.15;1.10;;;;;;;5.37;93.50;96884.53;5026751;28;20468;-71
2023/04/02 04:05:56;;;;;;;0.93;0.70;;;;;;;5.38;94.26;96894.09;5026061;28;20488;-71
2023/04/02 04:08:27;;;;;;;2.17;1.40;;;;;;;5.40;93.72;96888.59;5023702;28;20049;-71
2023/04/02 04:10:57;;;;;;;1.25;1.10;;;;;;;5.37;93.87;96894.28;5025443;28;20509;-73
2023/04/02 04:13:29;;;;;;;1.48;1.08;;;;;;;5.21;94.83;96905.81;5026444;28;20048;-73
2023/04/02 04:16:02;;;;;;;1.30;1.08;;;;;;;5.32;94.58;96909.84;5027697;28;20553;-73
2023/04/02 04:18:36;;;;;;;1.77;0.93;;;;;;;5.13;94.40;96908.53;5026702;28;20111;-73
2023/04/02 04:21:12;;;;;;;;;;;;;;;5.21;94.74;96921.69;5028170;28;20099;-73
2023/04/02 04:23:48;;;;;;;1.73;1.13;;;;;;;5.28;94.66;96927.09;5029152;28;20032;-73
2023/04/02 04:26:20;;;;;;;2.47;1.52;;;;;;;5.21;94.12;96926.97;5024015;28;20064;-73
2023/04/02 04:28:58;;;;;;;2.33;1.20;;;;;;;5.27;94.28;96939.50;5027817;28;20067;-73
2023/04/02 04:31:37;;;;;;;1.55;1.00;;;;;;;5.36;94.01;96935.78;5026177;28;20052;-72
2023/04/02 04:34:08;;;;;;;1.15;0.93;;;;;;;5.32;93.77;96949.53;5025656;28;20056;-72
2023/04/02 04:36:52;;;;;;;1.23;1.13;;;;;;;5.36;92.76;96953.47;5027886;28;20509;-73
2023/04/02 04:39:29;;;;;;;1.58;1.48;;;;;;;5.19;93.82;96957.25;5027797;28;20487;-70
2023/04/02 04:41:59;;;;;;;1.58;1.15;;;;;;;5.29;93.73;96966.59;5027139;28;20397;-72
2023/04/02 04:44:35;;;;;;;1.40;1.15;;;;;;;5.35;93.64;96973.81;5027411;28;20056;-73
2023/04/02 04:47:08;;;;;;;1.38;1.15;;;;;;;5.10;93.84;96977.63;5026831;28;20504;-73
2023/04/02 04:49:39;;;;;;;1.13;1.02;;;;;;;5.07;93.91;96992.06;5023331;28;20095;-73
2023/04/02 04:52:09;;;;;;;1.15;1.02;;;;;;;5.16;93.96;96984.88;5026917;28;20053;-73
2023/04/02 04:54:38;;;;;;;1.08;0.80;;;;;;;5.06;93.52;96992.22;5026240;28;20160;-72
2023/04/02 04:57:21;;;;;;;1.35;1.25;;;;;;;5.11;93.75;97009.19;5027659;28;20140;-72
2023/04/02 04:59:53;;;;;;;1.17;0.85;;;;;;;5.12;93.64;97010.03;5026498;28;20099;-72
2023/04/02 05:02:24;;;;;;;1.00;0.90;;;;;;;5.19;93.79;97013.63;5028366;28;20069;-72
2023/04/02 05:04:53;;;;;;;1.40;1.10;;;;;;;5.15;93.05;97020.25;5027415;28;20120;-72
2023/04/02 05:07:26;;;;;;;1.30;1.10;;;;;;;5.09;93.43;97024.41;5028121;28;20144;-72
2023/04/02 05:09:57;;;;;;;1.40;0.82;;;;;;;5.06;92.24;97024.78;5024752;28;20045;-72
2023/04/02 05:12:31;;;;;;;1.35;1.00;;;;;;;5.01;92.75;97031.56;5028158;28;20041;-73
2023/04/02 05:15:02;;;;;;;0.90;0.82;;;;;;;5.02;91.26;97031.41;5026639;28;20066;-73
2023/04/02 05:17:35;;;;;;;1.10;1.00;;;;;;;4.94;92.07;97046.50;5028716;28;20041;-72
2023/04/02 05:20:08;;;;;;;0.75;0.75;;;;;;;4.80;92.21;97053.31;5025794;28;20049;-73
2023/04/02 05:22:42;;;;;;;1.00;0.85;;;;;;;4.85;91.47;97056.28;5024637;28;20050;-73
2023/04/02 05:25:16;;;;;;;1.60;0.90;;;;;;;4.74;91.33;97062.78;5027194;28;20037;-72
2023/04/02 05:27:48;;;;;;;1.23;0.85;;;;;;;4.58;91.51;97080.50;5029351;28;20033;-72
2023/04/02 05:30:32;;;;;;;1.42;1.02;;;;;;;4.57;92.84;97079.66;5025957;28;20047;-72
2023/04/02 05:33:06;;;;;;;1.15;0.90;;;;;;;4.61;92.18;97083.63;5024145;28;20046;-72
2023/04/02 05:35:36;;;;;;;1.00;0.90;;;;;;;4.62;92.85;97084.47;5021820;28;20039;-73
2023/04/02 05:38:05;;;;;;;1.20;1.00;;;;;;;4.68;91.88;97095.16;5025110;28;20103;-73
2023/04/02 05:40:36;;;;;;;2.78;1.83;;;;;;;4.71;91.29;97094.81;5025759;28;20045;-74
2023/04/02 05:43:08;;;;;;;1.60;1.30;;;;;;;4.56;92.06;97095.72;5026508;28;20496;-72
2023/04/02 05:45:41;;;;;;;1.73;1.20;;;;;;;4.62;92.36;97101.13;5031944;28;20033;-72
2023/04/02 05:48:16;;;;;;;2.17;1.30;;;;;;;4.62;92.98;97101.13;5029620;28;20104;-72
2023/04/02 05:50:45;;;;;;;2.17;1.58;;;;;;;4.69;92.38;97103.91;5031302;28;20048;-72
2023/04/02 05:53:21;;;;;;;2.45;1.85;;;;;;;4.57;92.82;97111.38;5029502;28;20124;-72
2023/04/02 05:55:53;;;;;;;1.52;1.35;;;;;;;4.65;92.54;97108.72;5029676;28;20042;-72
2023/04/02 05:58:27;;;;;;;2.45;1.65;;;;;;;4.68;92.55;97111.00;5029486;28;20501;-73
2023/04/02 06:01:07;;;;;;;4.22;1.70;;;;;;;4.61;92.93;97107.41;5030590;28;20045;-72
2023/04/02 06:03:44;;;;;;;1.88;1.50;;;;;;;4.48;92.93;97120.31;5029161;28;20041;-73
2023/04/02 06:06:19;;;;;;;1.73;1.40;;;;;;;4.54;92.71;97130.22;5030184;28;20037;-73
2023/04/02 06:08:52;;;;;;;1.63;1.15;;;;;;;4.47;93.13;97133.69;5030087;28;20397;-73
2023/04/02 06:11:22;;;;;;;1.75;1.33;;;;;;;4.36;91.99;97142.81;5027913;28;20042;-73
2023/04/02 06:13:51;;;;;;;1.48;1.20;;;;;;;4.46;92.95;97140.00;5030707;28;20052;-72
2023/04/02 06:16:26;;;;;;;1.90;1.23;;;;;;;4.41;93.51;97151.06;5029564;28;20033;-72
2023/04/02 06:18:56;;;;;;;1.10;0.95;;;;;;;4.39;93.71;97163.59;5029153;28;20137;-70
2023/04/02 06:21:25;;;;;;;1.48;1.02;;;;;;;4.51;92.99;97161.44;5028260;28;20532;-71
2023/04/02 06:23:56;;;;;;;1.45;1.10;;;;;;;4.46;92.77;97161.97;5029283;28;20124;-73
2023/04/02 06:26:28;;;;;;;1.40;1.25;;;;;;;4.45;92.97;97167.41;5033133;28;20047;-70
2023/04/02 06:29:01;;;;;;;1.40;1.02;;;;;;;4.34;93.70;97171.22;5032274;28;20041;-70
2023/04/02 06:31:35;;;;;;;0.93;0.85;;;;;;;4.43;92.62;97180.78;5032426;28;20053;-70
2023/04/02 06:34:15;;;;;;;1.65;1.00;;;;;;;4.45;91.43;97189.38;5041186;28;20052;-70
2023/04/02 06:36:51;;;;;;;0.77;0.65;;;;;;;4.48;91.30;97185.53;5036421;28;20050;-71
2023/04/02 06:39:21;;;;;;;0.52;0.52;;;;;;;4.18;91.41;97187.03;5035422;28;20072;-71
2023/04/02 06:41:55;;;;;;;0.50;0.50;;;;;;;4.04;92.37;97207.84;5032668;28;20049;-70
2023/04/02 06:44:32;;;;;;;1.08;0.50;;;;;;;4.19;92.64;97207.19;5034668;28;20430;-70
2023/04/02 06:47:27;;;;;;;0.70;0.70;;;;;;;4.14;91.59;97218.25;5032814;28;20033;-71
2023/04/02 06:50:01;;;;;;;0.80;0.68;;;;;;;3.99;92.02;97228.63;5031260;28;20049;-71
2023/04/02 06:52:31;;;;;;;0.85;0.50;;;;;;;3.96;92.14;97226.28;5035583;28;20650;-71
2023/04/02 06:55:07;;;;;;;0.90;0.80;;;;;;;4.10;92.13;97231.94;5033841;28;20515;-71
2023/04/02 06:57:34;;;;;;;1.05;0.70;;;;;;;4.09;92.38;97238.19;5030626;28;20034;-71
2023/04/02 07:00:03;;;;;;;0.82;0.80;;;;;;;4.13;92.33;97232.44;5032339;28;20029;-71
2023/04/02 07:02:35;;;;;;;1.02;0.90;;;;;;;4.15;91.57;97248.97;5029171;28;20041;-72
2023/04/02 07:05:08;;;;;;;1.25;0.80;;;;;;;4.16;91.24;97258.50;5032427;28;20061;-71
2023/04/02 07:07:40;;;;;;;0.77;0.55;;;;;;;4.01;91.78;97258.34;5032878;28;20152;-71
2023/04/02 07:10:11;;;;;;;0.82;0.73;;;;;;;4.04;91.58;97263.31;5027084;28;20046;-71
2023/04/02 07:12:40;;;;;;;1.88;0.90;;;;;;;4.15;92.02;97270.09;5033335;28;20045;-71
2023/04/02 07:15:11;;;;;;;2.45;1.00;;;;;;;4.30;91.05;97271.09;5032974;28;20045;-71
2023/04/02 07:17:38;;;;;;;1.02;0.90;;;;;;;4.23;90.94;97280.66;5032938;28;20396;-71
2023/04/02 07:20:20;;;;;;;1.48;1.38;;;;;;;4.00;91.25;97285.72;5029519;28;20492;-71
2023/04/02 07:22:48;;;;;;;1.75;1.05;;;;;;;3.74;92.65;97292.88;5029671;28;20096;-71
2023/04/02 07:25:15;;;;;;;2.92;1.20;;;;;;;3.86;92.24;97296.88;5026464;28;20168;-72
2023/04/02 07:27:43;;;;;;;1.33;1.10;;;;;;;3.89;91.21;97299.22;5029857;28;20078;-71
2023/04/02 07:30:13;;;;;;;3.35;2.13;;;;;;;4.00;90.94;97309.47;5028530;28;20041;-71
2023/04/02 07:32:41;;;;;;;2.30;1.50;;;;;;;3.95;91.55;97306.47;5031299;28;20041;-71
2023/04/02 07:35:11;;;;;;;2.05;1.83;;;;;;;3.95;91.97;97310.94;5030698;28;20471;-71
2023/04/02 07:37:39;;;;;;;2.47;2.28;;;;;;;3.92;92.45;97325.31;5032685;28;20412;-70
2023/04/02 07:40:15;;;;;;;2.55;1.88;;;;;;;3.92;92.91;97327.13;5029519;28;20078;-71
2023/04/02 07:42:43;;;;;;;2.50;1.70;;;;;;;3.83;92.39;97334.19;5029919;28;20040;-71
2023/04/02 07:45:11;;;;;;;3.05;2.35;;;;;;;3.81;92.92;97332.69;5027483;28;20045;-71
2023/04/02 07:47:38;;;;;;;1.75;1.58;;;;;;;3.68;91.28;97335.75;5029714;28;20127;-71
2023/04/02 07:50:08;;;;;;;1.77;1.42;;;;;;;3.51;93.19;97336.66;5025537;28;20069;-71
2023/04/02 07:52:40;;;;;;;2.35;1.75;;;;;;;3.57;93.04;97350.03;5029393;28;20045;-71
2023/04/02 07:55:09;;;;;;;2.08;1.75;;;;;;;3.71;93.09;97346.00;5029248;28;20446;-71
2023/04/02 07:57:40;;;;;;;3.00;2.15;;;;;;;3.80;92.86;97350.31;5026950;28;20509;-71
2023/04/02 08:00:12;;;;;;;2.70;2.20;;;;;;;3.80;92.43;97354.78;5023344;28;20099;-71
2023/04/02 08:02:40;;;;;;;2.85;2.10;;;;;;;3.89;92.61;97354.66;5027776;28;20053;-71
2023/04/02 08:05:09;;;;;;;2.33;1.67;;;;;;;3.79;92.32;97372.41;5028140;28;20044;-71
2023/04/02 08:07:37;;;;;;;1.77;1.55;;;;;;;3.85;92.11;97378.88;5027506;28;20100;-71
2023/04/02 08:10:09;;;;;;;2.65;1.20;;;;;;;3.75;91.37;97383.44;5026088;28;20053;-71
2023/04/02 08:12:36;;;;;;;1.58;1.42;;;;;;;3.84;91.84;97380.69;5024785;28;20041;-71
2023/04/02 08:15:05;;;;;;;1.50;1.23;;;;;;;3.71;92.51;97390.03;5024385;28;20045;-71
2023/04/02 08:17:33;;;;;;;1.38;1.05;;;;;;;3.53;92.74;97400.66;5029845;28;20044;-70
2023/04/02 08:20:00;;;;;;;1.02;0.90;;;;;;;3.69;92.60;97392.81;5051373;28;20030;-70
2023/04/02 08:22:28;;;;;;;1.25;1.02;;;;;;;3.63;91.98;97409.28;5052628;28;20041;-70
2023/04/02 08:24:56;;;;;;;2.00;1.65;;;;;;;3.65;92.01;97408.13;5031038;28;20477;-71
2023/04/02 08:27:25;;;;;;;2.33;1.23;;;;;;;3.61;92.69;97409.44;5046347;28;20022;-71
2023/04/02 08:29:54;;;;;;;1.20;1.02;;;;;;;3.55;90.67;97420.59;5056627;28;20100;-70
2023/04/02 08:32:22;;;;;;;1.80;1.05;;;;;;;3.58;91.17;97422.94;5020854;28;20049;-71
2023/04/02 08:34:50;;;;;;;1.42;0.95;;;;;;;3.47;91.70;97425.81;5027165;28;20049;-71
2023/04/02 08:37:18;;;;;;;1.20;1.10;;;;;;;3.53;92.05;97430.47;5027325;28;20091;-71
2023/04/02 08:39:45;;;;;;;1.60;1.25;;;;;;;3.62;92.55;97440.13;5027626;28;20053;-71
2023/04/02 08:42:20;;;;;;;1.30;1.20;;;;;;;3.70;91.08;97439.34;5024441;28;20053;-70
2023/04/02 08:45:00;;;;;;;2.47;1.23;;;;;;;3.68;91.69;97444.78;5027154;28;20050;-71
2023/04/02 08:47:40;;;;;;;2.22;1.27;;;;;;;3.50;92.14;97448.44;5027407;28;20045;-71
2023/04/02 08:50:15;;;;;;;1.20;1.10;;;;;;;3.52;91.39;97460.50;5023737;28;20038;-71
2023/04/02 08:52:43;;;;;;;2.08;1.33;;;;;;;3.52;91.88;97455.22;5024238;28;20066;-71
2023/04/02 08:55:19;;;;;;;2.03;1.20;;;;;;;3.41;92.19;97465.19;5028626;28;20053;-71
2023/04/02 08:57:52;;;;;;;1.48;0.98;;;;;;;3.71;90.75;97472.66;5029220;28;20069;-71
2023/04/02 09:00:27;;;;;;;1.52;1.25;;;;;;;3.81;90.64;97476.03;5027234;28;20057;-71
2023/04/02 09:02:57;;;;;;;1.15;1.05;;;;;;;3.57;91.72;97476.69;5028530;28;20680;-71
2023/04/02 09:05:28;;;;;;;1.60;1.30;;;;;;;3.58;91.80;97488.91;5028185;28;20079;-72
2023/04/02 09:07:59;;;;;;;1.42;1.33;;;;;;;3.72;92.30;97489.34;5024118;28;20140;-73
2023/04/02 09:10:34;;;;;;;2.72;1.70;;;;;;;3.78;91.30;97481.63;5026726;28;20045;-74
2023/04/02 09:13:02;;;;;;;2.35;1.77;;;;;;;3.83;91.63;97487.28;5028372;28;20694;-73
2023/04/02 09:15:34;;;;;;;1.73;1.50;;;;;;;3.76;89.14;97491.50;5028727;28;20374;-73
2023/04/02 09:18:12;;;;;;;2.05;1.60;;;;;;;3.73;89.20;97494.47;5028988;28;20047;-73
2023/04/02 09:20:40;;;;;;;1.80;1.50;;;;;;;3.59;90.24;97501.13;5028113;28;20049;-73
2023/04/02 09:23:15;;;;;;;2.67;2.05;;;;;;;3.66;90.26;97509.22;5031213;28;20049;-72
2023/04/02 09:25:44;;;;;;;2.85;2.00;;;;;;;3.60;90.04;97515.13;5032201;28;20107;-72
2023/04/02 09:28:27;;;;;;;3.47;2.92;;;;;;;3.45;90.68;97522.75;5032854;28;20120;-72
2023/04/02 09:31:01;;;;;;;2.97;2.67;;;;;;;3.40;91.50;97532.94;5031736;28;20095;-72
2023/04/02 09:33:44;;;;;;;3.28;2.67;;;;;;;3.30;90.91;97537.47;5030421;28;20038;-72
2023/04/02 09:36:19;;;;;;;3.58;2.72;;;;;;;3.38;90.47;97544.63;5031704;28;20053;-73
2023/04/02 09:38:57;;;;;;;3.58;2.22;;;;;;;3.31;91.10;97553.16;5029288;28;20100;-73
2023/04/02 09:41:27;;;;;;;3.22;2.65;;;;;;;3.18;91.88;97550.03;5026760;28;20091;-73
2023/04/02 09:44:13;;;;;;;4.55;2.70;;;;;;;3.22;91.59;97553.19;5029081;28;20056;-72
2023/04/02 09:46:51;;;;;;;5.07;2.78;;;;;;;3.18;91.70;97559.75;5031167;28;20575;-73
2023/04/02 09:49:22;;;;;;;6.60;3.10;;;;;;;3.21;92.21;97562.94;5031672;28;20041;-73
2023/04/02 09:52:08;;;;;;;6.68;3.55;;;;;;;3.36;92.40;97575.59;5030579;28;20045;-73
2023/04/02 09:54:40;;;;;;;4.45;3.28;;;;;;;3.31;91.68;97576.06;5030699;28;20505;-72
2023/04/02 09:57:20;;;;;;;4.25;3.25;;;;;;;3.29;91.64;97581.47;5032505;28;20041;-72
2023/04/02 09:59:47;;;;;;;3.50;2.70;;;;;;;3.28;91.84;97592.16;5024091;28;20041;-73
2023/04/02 10:02:28;;;;;;;4.07;3.35;;;;;;;3.15;91.97;97589.88;5031262;28;20045;-72
2023/04/02 10:04:56;;;;;;;5.28;3.65;;;;;;;3.22;91.32;97587.47;5031091;28;20447;-73
2023/04/02 10:07:33;;;;;;;3.78;3.10;;;;;;;3.09;92.45;97598.41;5030611;28;20053;-73
2023/04/02 10:10:02;;;;;;;5.35;2.47;;;;;;;2.96;92.62;97605.81;5028935;28;20046;-73
2023/04/02 10:12:35;;;;;;;4.57;4.10;;;;;;;3.10;93.03;97615.88;5031236;28;20439;-73
2023/04/02 10:15:04;;;;;;;3.47;2.72;;;;;;;3.14;91.69;97616.38;5028192;28;20122;-73
2023/04/02 10:17:36;;;;;;;2.97;2.67;;;;;;;3.00;92.50;97617.75;5030785;28;20049;-72
2023/04/02 10:20:10;;;;;;;4.22;3.00;;;;;;;2.95;92.93;97630.50;5023393;28;20037;-74
2023/04/02 10:22:37;;;;;;;4.00;2.42;;;;;;;2.94;92.02;97627.03;5028439;28;20481;-73
2023/04/02 10:25:13;;;;;;;2.90;2.25;;;;;;;2.98;91.43;97632.88;5031236;28;20033;-73
2023/04/02 10:27:47;;;;;;;3.42;2.53;;;;;;;2.96;92.21;97634.81;5031385;28;20037;-73
2023/04/02 10:30:19;;;;;;;3.13;2.33;;;;;;;3.08;91.86;97641.56;5029092;28;20069;-73
2023/04/02 10:32:50;;;;;;;2.92;2.30;;;;;;;2.98;91.76;97640.78;5028622;28;20500;-73
2023/04/02 10:35:24;;;;;;;4.18;3.13;;;;;;;2.93;91.99;97648.28;5029147;28;20037;-73
2023/04/02 10:38:14;;;;;;;4.05;2.95;;;;;;;2.82;92.33;97643.19;5031747;28;20116;-73
2023/04/02 10:40:46;;;;;;;3.53;3.22;;;;;;;3.01;92.14;97658.09;5029702;28;20151;-73
2023/04/02 10:43:39;;;;;;;3.30;2.50;;;;;;;2.90;92.03;97661.75;5029104;28;20099;-73
2023/04/02 10:46:12;;;;;;;2.17;2.03;;;;;;;3.00;90.98;97661.72;5012111;28;20123;-72
2023/04/02 10:48:47;;;;;;;3.10;2.45;;;;;;;3.05;90.75;97662.09;5031452;28;20381;-73
2023/04/02 10:51:28;;;;;;;2.42;2.10;;;;;;;3.15;90.19;97673.44;5029579;28;20041;-72
2023/04/02 10:53:59;;;;;;;2.90;1.80;;;;;;;3.03;91.39;97680.69;5030823;28;20053;-73
2023/04/02 10:56:27;;;;;;;2.85;2.20;;;;;;;3.20;90.37;97689.66;5030291;28;20065;-73
2023/04/02 10:59:01;;;;;;;;;;;;;;;3.07;90.71;97682.06;5030785;28;20038;-73
2023/04/02 11:01:30;;;;;;;2.97;2.75;;;;;;;3.18;89.90;97695.06;5028456;28;20327;-72
2023/04/02 11:04:01;;;;;;;2.28;1.55;;;;;;;3.24;89.24;97698.91;5030333;28;20057;-73
2023/04/02 11:06:32;;;;;;;2.15;1.80;;;;;;;3.14;88.27;97709.50;5025967;28;20045;-73
2023/04/02 11:09:03;;;;;;;2.88;1.65;;;;;;;3.17;88.96;97703.94;5030723;28;20079;-72
2023/04/02 11:11:35;;;;;;;2.55;2.30;;;;;;;3.19;88.48;97709.09;5028452;28;20404;-73
2023/04/02 11:14:05;;;;;;;1.80;1.67;;;;;;;3.16;89.78;97712.84;5026882;28;20107;-73
2023/04/02 11:16:33;;;;;;;1.48;1.35;;;;;;;3.21;88.12;97715.88;5027742;28;20041;-72
2023/04/02 11:19:21;;;;;;;2.05;1.73;;;;;;;3.33;87.99;97721.78;5029463;28;20125;-73
2023/04/02 11:21:50;;;;;;;2.75;2.22;;;;;;;3.39;86.60;97721.19;5027721;28;20095;-73
2023/04/02 11:24:36;;;;;;;3.47;1.60;;;;;;;3.34;86.40;97726.06;5027176;28;20037;-73
2023/04/02 11:27:07;;;;;;;2.38;2.10;;;;;;;3.48;84.19;97733.50;5027666;28;20042;-72
2023/04/02 11:29:36;;;;;;;2.15;1.90;;;;;;;3.13;84.94;97725.47;5030384;28;20123;-73
2023/04/02 11:32:29;;;;;;;3.25;1.60;;;;;;;3.02;85.59;97728.28;5029465;28;20053;-72
2023/04/02 11:35:02;;;;;;;2.97;2.08;;;;;;;3.06;85.78;97729.66;5029192;28;20061;-73
2023/04/02 11:37:37;;;;;;;1.70;1.27;;;;;;;3.07;84.80;97726.06;5029326;28;20374;-73
2023/04/02 11:40:45;;;;;;;2.13;1.67;;;;;;;3.09;84.90;97742.56;5028865;28;20033;-73
2023/04/02 11:43:48;;;;;;;2.58;2.38;;;;;;;3.20;84.91;97745.88;5030268;28;20053;-75
2023/04/02 11:46:45;;;;;;;1.70;1.60;;;;;;;3.28;84.11;97753.03;5029236;28;20184;-74
2023/04/02 11:49:40;;;;;;;3.75;2.00;;;;;;;3.36;82.34;97754.94;5028977;28;20061;-71
2023/04/02 11:52:26;;;;;;;2.97;1.80;;;;;;;3.43;81.42;97756.00;5006367;28;20068;-72
2023/04/02 11:55:00;;;;;;;3.70;1.88;;;;;;;3.42;82.11;97762.28;5027990;28;20467;-71
2023/04/02 11:57:49;;;;;;;1.92;1.80;;;;;;;3.34;81.48;97763.00;5029662;28;20496;-72
2023/04/02 12:00:26;;;;;;;1.67;1.40;;;;;;;3.32;81.22;97771.03;5025653;28;20113;-72
2023/04/02 12:03:05;;;;;;;3.15;1.83;;;;;;;3.39;79.57;97773.13;5027303;28;20049;-72
2023/04/02 12:05:36;;;;;;;2.88;2.08;;;;;;;3.38;78.55;97777.56;5027588;28;20128;-73
2023/04/02 12:08:15;;;;;;;4.45;2.60;;;;;;;3.36;77.27;97776.03;5025014;28;20060;-72
2023/04/02 12:10:56;;;;;;;2.45;1.95;;;;;;;3.36;78.93;97776.03;5028590;28;20091;-72